Time;durP1;ratioP1;P1;durP2;ratioP2;P2;SDS_P1;SDS_P2;PMS_P1;PMS_P2;Temp;Humidity;BMP_temperature;BMP_pressure;BME280_temperature;BME280_humidity;BME280_pressure;Samples;Min_cycle;Max_cycle;Signal;HPM_P1;HPM_P2
2023/06/30 00:02:05;;;;;;;8.07;2.27;;;;;;;16.53;100.00;101989.59;5055508;28;20483;-73
2023/06/30 00:04:32;;;;;;;9.77;2.80;;;;;;;15.46;100.00;101822.88;5052173;28;20442;-73
2023/06/30 00:07:00;;;;;;;9.03;2.60;;;;;;;16.19;100.00;101950.03;5053363;28;20553;-74
2023/06/30 00:09:26;;;;;;;6.43;2.33;;;;;;;16.45;100.00;102000.63;5055042;28;20477;-73
2023/06/30 00:11:53;;;;;;;5.40;1.90;;;;;;;16.66;100.00;102064.56;5055075;28;20529;-73
2023/06/30 00:14:20;;;;;;;7.93;2.30;;;;;;;16.58;100.00;102052.09;5053116;28;20561;-73
2023/06/30 00:16:45;;;;;;;9.30;2.30;;;;;;;16.33;100.00;101997.72;5056440;28;20442;-73
2023/06/30 00:19:11;;;;;;;9.47;2.30;;;;;;;16.53;100.00;102043.75;5053596;28;21167;-73
2023/06/30 00:21:41;;;;;;;9.13;2.43;;;;;;;16.12;100.00;101993.34;5053523;28;20203;-73
2023/06/30 00:24:12;;;;;;;7.60;2.17;;;;;;;15.76;100.00;101916.09;5048197;28;20274;-73
2023/06/30 00:26:38;;;;;;;10.87;3.17;;;;;;;16.36;100.00;102048.75;5052233;28;20953;-73
2023/06/30 00:29:04;;;;;;;10.30;2.27;;;;;;;16.01;100.00;101992.09;5052682;28;20473;-73
2023/06/30 00:31:29;;;;;;;9.37;2.07;;;;;;;15.94;100.00;101957.94;5053749;28;20530;-73
2023/06/30 00:33:57;;;;;;;11.63;2.70;;;;;;;16.18;100.00;102019.59;5053193;28;20195;-73
2023/06/30 00:36:23;;;;;;;13.50;3.50;;;;;;;16.33;100.00;102062.72;5054542;28;20194;-73
2023/06/30 00:38:51;;;;;;;6.43;2.40;;;;;;;16.39;100.00;102059.16;5055129;28;20833;-73
2023/06/30 00:41:17;;;;;;;9.57;2.43;;;;;;;15.04;100.00;101849.19;5050922;28;20246;-73
2023/06/30 00:43:42;;;;;;;10.90;2.13;;;;;;;15.94;100.00;101993.97;5052572;28;20854;-74
2023/06/30 00:46:12;;;;;;;9.73;2.10;;;;;;;16.14;100.00;102048.13;5052007;28;20445;-73
2023/06/30 00:48:37;;;;;;;6.10;2.43;;;;;;;16.14;100.00;102045.41;5052876;28;20210;-74
2023/06/30 00:51:04;;;;;;;7.63;2.67;;;;;;;15.62;100.00;101946.00;5062242;28;21223;-73
2023/06/30 00:53:30;;;;;;;12.47;2.73;;;;;;;16.11;100.00;102051.22;5056410;28;20188;-73
2023/06/30 00:55:56;;;;;;;10.00;2.50;;;;;;;15.91;100.00;102026.00;5052218;28;20463;-73
2023/06/30 00:58:21;;;;;;;10.67;2.23;;;;;;;15.73;100.00;102007.66;5053961;28;20434;-73
2023/06/30 01:00:47;;;;;;;8.07;2.50;;;;;;;15.82;100.00;102023.50;5051225;28;20213;-73
2023/06/30 01:03:19;;;;;;;9.80;2.63;;;;;;;15.96;100.00;102047.88;5051034;28;20218;-73
2023/06/30 01:06:10;;;;;;;8.90;2.10;;;;;;;16.01;100.00;102053.50;5052158;28;20445;-74
2023/06/30 01:08:48;;;;;;;8.80;2.00;;;;;;;15.99;100.00;102048.28;5052725;28;20844;-74
2023/06/30 01:11:14;;;;;;;7.07;2.43;;;;;;;15.02;100.00;101924.22;5053774;28;20460;-73
2023/06/30 01:13:41;;;;;;;14.33;2.57;;;;;;;15.06;100.00;101920.91;5052199;28;20448;-75
2023/06/30 01:16:09;;;;;;;8.37;2.10;;;;;;;15.72;100.00;102019.50;5054073;28;20539;-74
2023/06/30 01:18:36;;;;;;;9.97;2.67;;;;;;;15.94;100.00;102049.94;5054276;28;20653;-74
2023/06/30 01:21:04;;;;;;;8.90;2.70;;;;;;;15.88;100.00;102048.91;5051306;28;20465;-74
2023/06/30 01:23:38;;;;;;;10.83;1.93;;;;;;;15.91;100.00;102044.94;5051868;28;20445;-74
2023/06/30 01:26:05;;;;;;;8.20;2.20;;;;;;;15.72;100.00;102009.53;5050340;28;20442;-74
2023/06/30 01:28:35;;;;;;;10.00;2.60;;;;;;;15.86;100.00;102050.16;5051087;28;20470;-74
2023/06/30 01:31:01;;;;;;;8.97;2.97;;;;;;;15.83;100.00;102070.31;5048313;28;20519;-75
2023/06/30 01:33:27;;;;;;;7.70;2.10;;;;;;;15.05;100.00;101943.56;5048041;28;20453;-74
2023/06/30 01:35:53;;;;;;;11.30;2.93;;;;;;;14.82;100.00;101899.84;5052174;28;20441;-74
2023/06/30 01:38:19;;;;;;;10.27;2.80;;;;;;;14.48;100.00;101856.41;5052555;28;20442;-74
2023/06/30 01:40:46;;;;;;;6.57;2.50;;;;;;;15.72;100.00;102025.75;5048684;28;20480;-74
2023/06/30 01:43:13;;;;;;;9.77;2.53;;;;;;;15.58;100.00;102041.06;5048097;28;20196;-74
2023/06/30 01:45:40;;;;;;;9.10;2.53;;;;;;;15.55;100.00;102033.38;5050165;28;20433;-74
2023/06/30 01:48:06;;;;;;;7.77;2.77;;;;;;;14.98;100.00;101923.78;5050898;28;20473;-74
2023/06/30 01:50:32;;;;;;;10.50;2.57;;;;;;;15.68;100.00;102042.59;5050970;28;20495;-74
2023/06/30 01:52:59;;;;;;;9.00;2.50;;;;;;;15.71;100.00;102034.91;5052637;28;20434;-74
2023/06/30 01:55:25;;;;;;;7.17;2.40;;;;;;;15.67;100.00;102035.47;5052360;28;20441;-74
2023/06/30 01:57:51;;;;;;;8.77;2.50;;;;;;;15.51;100.00;102031.28;5052899;28;20531;-75
2023/06/30 02:00:17;;;;;;;8.87;2.70;;;;;;;15.40;100.00;102002.94;5050817;28;20529;-74
2023/06/30 02:02:43;;;;;;;5.67;2.30;;;;;;;15.73;100.00;102029.28;5049869;28;20445;-75
2023/06/30 02:05:08;;;;;;;8.53;2.20;;;;;;;15.48;100.00;102015.47;5050202;28;20504;-74
2023/06/30 02:07:34;;;;;;;7.20;2.40;;;;;;;15.12;100.00;101984.94;5051717;28;20184;-74
2023/06/30 02:09:59;;;;;;;10.40;2.80;;;;;;;14.95;100.00;101966.56;5052217;28;20202;-74
2023/06/30 02:12:25;;;;;;;7.73;2.70;;;;;;;15.32;100.00;102003.94;5051790;28;20204;-74
2023/06/30 02:14:50;;;;;;;8.50;2.77;;;;;;;15.33;100.00;102007.47;5052437;28;20594;-75
2023/06/30 02:17:15;;;;;;;12.30;2.40;;;;;;;15.49;100.00;102017.94;5051459;28;20612;-75
2023/06/30 02:19:41;;;;;;;5.50;2.20;;;;;;;15.42;100.00;102021.66;5053613;28;20183;-74
2023/06/30 02:22:06;;;;;;;6.70;2.77;;;;;;;15.32;100.00;102022.03;5053695;28;20200;-74
2023/06/30 02:24:32;;;;;;;8.53;2.03;;;;;;;15.26;100.00;101985.84;5052447;28;20210;-74
2023/06/30 02:26:58;;;;;;;7.43;2.50;;;;;;;15.38;100.00;102016.66;5053115;28;20807;-75
2023/06/30 02:29:23;;;;;;;7.00;2.17;;;;;;;15.37;100.00;102015.00;5051540;28;20548;-74
2023/06/30 02:31:49;;;;;;;5.23;2.53;;;;;;;15.35;100.00;101972.97;5053223;28;20299;-74
2023/06/30 02:34:14;;;;;;;5.40;2.60;;;;;;;14.93;100.00;101985.72;5051368;28;20195;-74
2023/06/30 02:36:39;;;;;;;10.20;2.67;;;;;;;13.74;100.00;101786.03;5054449;28;20237;-74
2023/06/30 02:39:05;;;;;;;11.60;2.67;;;;;;;15.44;100.00;102019.59;5055168;28;20664;-74
2023/06/30 02:41:30;;;;;;;9.67;2.83;;;;;;;14.87;100.00;101943.28;5052743;28;20205;-74
2023/06/30 02:43:56;;;;;;;9.00;3.23;;;;;;;13.51;100.00;101751.22;5052214;28;20196;-74
2023/06/30 02:46:21;;;;;;;11.10;2.87;;;;;;;14.88;100.00;101975.47;5055870;28;20191;-74
2023/06/30 02:48:46;;;;;;;8.80;2.60;;;;;;;14.90;100.00;101964.50;5055528;28;20211;-74
2023/06/30 02:51:12;;;;;;;8.33;3.03;;;;;;;15.31;100.00;102020.38;5056512;28;20208;-74
2023/06/30 02:53:38;;;;;;;12.90;2.90;;;;;;;15.21;100.00;102022.63;5058002;28;20265;-74
2023/06/30 02:56:03;;;;;;;12.07;3.20;;;;;;;14.18;100.00;101809.16;5056483;28;20217;-74
2023/06/30 02:58:29;;;;;;;16.60;3.20;;;;;;;15.19;100.00;102017.44;5056827;28;20183;-74
2023/06/30 03:00:56;;;;;;;5.87;2.80;;;;;;;15.21;100.00;102009.09;5054528;28;20210;-74
2023/06/30 03:03:21;;;;;;;7.50;3.13;;;;;;;15.10;100.00;102002.38;5055528;28;20191;-74
2023/06/30 03:05:47;;;;;;;7.30;3.07;;;;;;;15.19;100.00;102005.75;5049961;28;20437;-74
2023/06/30 03:08:12;;;;;;;13.53;3.37;;;;;;;15.23;100.00;102007.03;5050664;28;20212;-74
2023/06/30 03:10:38;;;;;;;4.93;3.00;;;;;;;15.02;100.00;101973.69;5054626;28;20286;-75
2023/06/30 03:13:03;;;;;;;9.13;2.70;;;;;;;15.07;100.00;102005.50;5055846;28;20191;-74
2023/06/30 03:15:29;;;;;;;9.37;2.97;;;;;;;14.15;100.00;101848.16;5055791;28;20619;-74
2023/06/30 03:17:55;;;;;;;7.57;2.80;;;;;;;14.01;100.00;101843.69;5054806;28;20225;-74
2023/06/30 03:20:21;;;;;;;12.63;3.70;;;;;;;15.09;100.00;101996.16;5056779;28;20682;-74
2023/06/30 03:22:46;;;;;;;9.00;3.13;;;;;;;15.04;100.00;102001.34;5057510;28;20426;-74
2023/06/30 03:25:11;;;;;;;7.50;2.80;;;;;;;14.96;100.00;101988.00;5055132;28;20203;-74
2023/06/30 03:27:37;;;;;;;6.27;2.83;;;;;;;14.02;100.00;101904.69;5056069;28;20233;-75
2023/06/30 03:30:04;;;;;;;5.70;2.87;;;;;;;15.05;100.00;101984.09;5054600;28;20184;-74
2023/06/30 03:32:30;;;;;;;11.00;3.40;;;;;;;14.63;100.00;101912.19;5052905;28;20206;-74
2023/06/30 03:34:55;;;;;;;8.17;3.27;;;;;;;14.99;100.00;101992.19;5054746;28;20436;-74
2023/06/30 03:37:21;;;;;;;10.13;3.20;;;;;;;14.09;100.00;101840.84;5057150;28;20449;-74
2023/06/30 03:39:46;;;;;;;6.50;2.70;;;;;;;13.73;100.00;101814.84;5058139;28;20178;-75
2023/06/30 03:42:12;;;;;;;10.17;3.10;;;;;;;13.88;100.00;101870.56;5066657;28;20215;-74
2023/06/30 03:44:37;;;;;;;9.17;3.33;;;;;;;14.94;100.00;101994.63;5054983;28;20187;-74
2023/06/30 03:47:03;;;;;;;13.03;3.00;;;;;;;14.93;100.00;101988.41;5053565;28;20190;-74
2023/06/30 03:49:28;;;;;;;8.03;3.23;;;;;;;14.90;100.00;101991.50;5053949;28;20607;-75
2023/06/30 03:51:54;;;;;;;10.17;3.63;;;;;;;14.29;100.00;101923.78;5056427;28;20206;-74
2023/06/30 03:54:19;;;;;;;7.60;3.30;;;;;;;14.76;100.00;101965.44;5057046;28;20191;-75
2023/06/30 03:56:44;;;;;;;7.70;3.00;;;;;;;14.24;100.00;101871.25;5058682;28;20180;-74
2023/06/30 03:59:10;;;;;;;6.93;3.37;;;;;;;14.12;100.00;101899.81;5058534;28;20320;-74
2023/06/30 04:01:37;;;;;;;8.33;3.50;;;;;;;14.67;100.00;101972.88;5058152;28;20203;-74
2023/06/30 04:04:02;;;;;;;10.60;3.50;;;;;;;14.95;100.00;101999.00;5054942;28;20239;-75
2023/06/30 04:06:28;;;;;;;13.97;3.20;;;;;;;14.37;100.00;101932.56;5054238;28;20438;-74
2023/06/30 04:08:53;;;;;;;14.23;3.70;;;;;;;14.63;100.00;101972.41;5055467;28;20199;-74
2023/06/30 04:11:18;;;;;;;11.10;2.70;;;;;;;13.27;100.00;101769.47;5053646;28;20211;-74
2023/06/30 04:13:44;;;;;;;6.90;3.23;;;;;;;14.79;100.00;101998.28;5056749;28;20611;-75
2023/06/30 04:16:09;;;;;;;6.80;3.27;;;;;;;14.79;100.00;102002.88;5054929;28;21108;-74
2023/06/30 04:18:35;;;;;;;10.07;3.00;;;;;;;14.77;100.00;101997.66;5056242;28;20697;-75
2023/06/30 04:21:00;;;;;;;5.83;3.40;;;;;;;14.73;100.00;101971.25;5053144;28;20211;-75
2023/06/30 04:23:25;;;;;;;9.93;3.13;;;;;;;14.66;100.00;101988.22;5052752;28;20249;-74
2023/06/30 04:25:51;;;;;;;8.33;2.73;;;;;;;14.62;100.00;101978.84;5054079;28;20191;-75
2023/06/30 04:28:16;;;;;;;7.07;3.23;;;;;;;14.78;100.00;101991.22;5051503;28;20273;-75
2023/06/30 04:30:42;;;;;;;10.10;4.07;;;;;;;13.84;100.00;101859.31;5052137;28;20211;-75
2023/06/30 04:33:07;;;;;;;12.53;3.03;;;;;;;14.71;100.00;101970.59;5055663;28;20202;-75
2023/06/30 04:35:33;;;;;;;6.03;2.47;;;;;;;14.82;100.00;101992.50;5052309;28;20697;-75
2023/06/30 04:37:58;;;;;;;6.10;2.90;;;;;;;15.01;100.00;102004.41;5054364;28;20194;-75
2023/06/30 04:40:23;;;;;;;7.30;3.00;;;;;;;13.54;100.00;101800.19;5054828;28;20205;-75
2023/06/30 04:42:49;;;;;;;14.03;3.60;;;;;;;14.55;100.00;101950.13;5054244;28;20183;-75
2023/06/30 04:45:14;;;;;;;9.23;2.90;;;;;;;14.98;100.00;102007.53;5052374;28;20191;-74
2023/06/30 04:47:40;;;;;;;9.00;2.77;;;;;;;14.94;100.00;101979.25;5052450;28;20191;-74
2023/06/30 04:50:06;;;;;;;6.30;2.67;;;;;;;14.99;100.00;102006.50;5053653;28;20187;-74
2023/06/30 04:52:31;;;;;;;6.40;2.20;;;;;;;14.68;100.00;101952.94;5052479;28;20215;-75
2023/06/30 04:54:57;;;;;;;8.90;2.90;;;;;;;14.49;100.00;101900.44;5051804;28;20187;-74
2023/06/30 04:57:23;;;;;;;9.10;3.20;;;;;;;15.05;100.00;102005.72;5051504;28;20188;-75
2023/06/30 04:59:52;;;;;;;8.87;2.47;;;;;;;13.64;100.00;101782.84;5053413;28;20204;-75
2023/06/30 05:02:18;;;;;;;5.50;2.87;;;;;;;14.96;100.00;102001.50;5055725;28;20465;-75
2023/06/30 05:04:44;;;;;;;4.67;2.30;;;;;;;15.03;100.00;101996.13;5069967;28;20426;-75
2023/06/30 05:07:09;;;;;;;8.20;2.47;;;;;;;14.79;100.00;101956.94;5051656;28;20229;-75
2023/06/30 05:09:35;;;;;;;6.30;2.30;;;;;;;13.88;100.00;101819.31;5051909;28;20468;-75
2023/06/30 05:12:01;;;;;;;8.60;2.70;;;;;;;14.54;100.00;101903.41;5053218;28;20699;-75
2023/06/30 05:14:26;;;;;;;6.90;2.70;;;;;;;15.13;100.00;102007.41;5055266;28;20194;-75
2023/06/30 05:16:52;;;;;;;6.83;2.43;;;;;;;15.13;100.00;102016.34;5053850;28;20718;-75
2023/06/30 05:19:17;;;;;;;6.37;2.20;;;;;;;15.00;100.00;101985.72;5055984;28;20216;-74
2023/06/30 05:21:42;;;;;;;7.33;2.10;;;;;;;15.18;100.00;102010.34;5054951;28;20210;-75
2023/06/30 05:24:08;;;;;;;5.70;2.63;;;;;;;15.32;100.00;102008.53;5048925;28;20187;-74
2023/06/30 05:26:33;;;;;;;5.50;2.20;;;;;;;15.23;100.00;102004.34;5043289;28;20682;-75
2023/06/30 05:28:59;;;;;;;11.07;2.87;;;;;;;15.09;100.00;101976.41;5046136;28;20203;-74
2023/06/30 05:31:24;;;;;;;5.77;2.53;;;;;;;14.21;100.00;101860.84;5047194;28;20221;-75
2023/06/30 05:33:50;;;;;;;7.93;2.50;;;;;;;15.19;100.00;102009.31;5047629;28;20179;-75
2023/06/30 05:36:15;;;;;;;12.07;2.60;;;;;;;15.25;100.00;102008.50;5050093;28;20183;-75
2023/06/30 05:38:41;;;;;;;8.20;2.50;;;;;;;14.99;100.00;101963.28;5052229;28;20190;-75
2023/06/30 05:41:06;;;;;;;8.43;2.60;;;;;;;15.32;100.00;102000.41;5051586;28;20206;-75
2023/06/30 05:43:31;;;;;;;9.53;2.53;;;;;;;15.46;100.00;102007.53;5049892;28;20206;-75
2023/06/30 05:45:57;;;;;;;12.33;2.87;;;;;;;13.88;100.00;101770.78;5050953;28;20720;-75
2023/06/30 05:48:22;;;;;;;7.40;2.20;;;;;;;15.49;100.00;101999.03;5050104;28;20204;-75
2023/06/30 05:50:48;;;;;;;7.07;3.00;;;;;;;15.47;100.00;101998.38;5044066;28;20213;-75
2023/06/30 05:53:13;;;;;;;6.33;2.20;;;;;;;14.56;100.00;101860.03;5059889;28;20194;-75
2023/06/30 05:55:39;;;;;;;6.77;2.70;;;;;;;15.56;100.00;101977.41;5048570;28;20202;-75
2023/06/30 05:58:04;;;;;;;8.47;2.43;;;;;;;14.27;100.00;101782.84;5050883;28;20190;-75
2023/06/30 06:00:30;;;;;;;11.97;2.57;;;;;;;15.14;100.00;101906.38;5058687;28;20682;-76
2023/06/30 06:02:55;;;;;;;9.33;2.40;;;;;;;15.58;100.00;101940.19;5052712;28;20180;-76
2023/06/30 06:05:21;;;;;;;5.53;2.40;;;;;;;15.55;100.00;101925.19;5052150;28;21475;-75
2023/06/30 06:07:48;;;;;;;7.60;2.20;;;;;;;15.00;100.00;101834.44;5049999;28;20190;-76
2023/06/30 06:10:14;;;;;;;6.90;2.57;;;;;;;14.98;100.00;101850.00;5050379;28;20190;-76
2023/06/30 06:12:39;;;;;;;7.70;2.33;;;;;;;16.10;100.00;101983.78;5051436;28;20823;-76
2023/06/30 06:15:09;;;;;;;7.60;2.33;;;;;;;15.57;100.00;101912.31;5050028;28;20182;-76
2023/06/30 06:17:34;;;;;;;8.43;2.60;;;;;;;16.27;100.00;102020.22;5053688;28;20180;-76
2023/06/30 06:19:59;;;;;;;4.10;1.90;;;;;;;16.17;100.00;102003.53;5051681;28;20453;-76
2023/06/30 06:22:25;;;;;;;4.73;1.90;;;;;;;16.22;100.00;102012.72;5052267;28;20195;-74
2023/06/30 06:24:50;;;;;;;4.90;2.00;;;;;;;15.84;100.00;101954.81;5050919;28;20187;-74
2023/06/30 06:27:16;;;;;;;4.27;2.13;;;;;;;16.42;100.00;102026.25;5048433;28;20215;-74
2023/06/30 06:29:41;;;;;;;6.13;1.90;;;;;;;16.40;100.00;102006.69;5050141;28;20497;-74
2023/06/30 06:32:07;;;;;;;4.10;1.93;;;;;;;16.34;100.00;101993.97;5083668;28;21013;-75
2023/06/30 06:34:33;;;;;;;5.90;1.60;;;;;;;15.29;100.00;101833.25;5049730;28;20219;-75
2023/06/30 06:37:00;;;;;;;6.70;1.60;;;;;;;16.35;100.00;102011.91;5084821;28;20790;-75
2023/06/30 06:39:25;;;;;;;7.03;1.83;;;;;;;15.83;100.00;101924.25;5055838;28;20409;-75
2023/06/30 06:41:51;;;;;;;4.33;1.70;;;;;;;15.28;100.00;101826.19;5055693;28;20453;-75
2023/06/30 06:44:17;;;;;;;6.67;1.90;;;;;;;16.66;100.00;102087.09;5052413;28;20195;-75
2023/06/30 06:46:43;;;;;;;3.70;1.40;;;;;;;16.70;100.00;102052.28;5050924;28;20244;-75
2023/06/30 06:49:08;;;;;;;3.53;1.40;;;;;;;16.52;100.00;102036.69;5050879;28;20199;-74
2023/06/30 06:51:34;;;;;;;3.03;1.60;;;;;;;16.17;100.00;101993.56;5048666;28;20465;-74
2023/06/30 06:53:59;;;;;;;3.20;1.23;;;;;;;16.63;100.00;102098.31;5052776;28;20195;-75
2023/06/30 06:56:25;;;;;;;3.63;1.40;;;;;;;16.68;100.00;102084.16;5053651;28;20190;-75
2023/06/30 06:58:50;;;;;;;3.80;1.20;;;;;;;16.22;100.00;102014.59;5053755;28;20187;-75
2023/06/30 07:01:16;;;;;;;4.03;1.20;;;;;;;16.78;100.00;102100.03;5050570;28;20286;-75
2023/06/30 07:03:41;;;;;;;5.50;1.57;;;;;;;16.88;100.00;102108.56;5053369;28;20190;-75
2023/06/30 07:06:07;;;;;;;3.70;1.50;;;;;;;16.24;100.00;101991.69;5052364;28;20637;-74
2023/06/30 07:08:35;;;;;;;5.13;1.30;;;;;;;16.99;100.00;102097.09;5049808;28;20698;-74
2023/06/30 07:11:03;;;;;;;3.47;1.30;;;;;;;16.77;100.00;102099.19;5052346;28;20211;-74
2023/06/30 07:13:28;;;;;;;6.37;1.20;;;;;;;15.85;100.00;101978.94;5053046;28;20422;-74
2023/06/30 07:15:54;;;;;;;4.87;1.50;;;;;;;16.85;100.00;102147.75;5050901;28;20433;-74
2023/06/30 07:18:21;;;;;;;2.43;1.20;;;;;;;15.93;100.00;102008.53;5053312;28;20652;-75
2023/06/30 07:20:47;;;;;;;2.80;1.30;;;;;;;16.83;100.00;102154.44;5052954;28;20548;-74
2023/06/30 07:23:13;;;;;;;4.13;1.30;;;;;;;16.83;100.00;102152.53;5051586;28;20431;-75
2023/06/30 07:25:38;;;;;;;4.40;1.40;;;;;;;16.69;100.00;102131.88;5052504;28;20426;-75
2023/06/30 07:28:04;;;;;;;3.37;1.23;;;;;;;16.00;100.00;102030.19;5052332;28;20199;-74
2023/06/30 07:30:29;;;;;;;3.13;1.00;;;;;;;16.97;100.00;102166.09;5051994;28;20237;-74
2023/06/30 07:32:55;;;;;;;14.83;1.10;;;;;;;17.10;100.00;102166.13;5056486;28;20196;-74
2023/06/30 07:35:22;;;;;;;9.07;1.30;;;;;;;17.21;100.00;102172.75;5055963;28;20670;-72
2023/06/30 07:37:49;;;;;;;3.60;0.90;;;;;;;17.11;100.00;102194.88;5058613;28;20464;-75
2023/06/30 07:40:15;;;;;;;4.20;1.30;;;;;;;16.57;100.00;102101.88;5057515;28;20457;-74
2023/06/30 07:42:41;;;;;;;2.40;1.10;;;;;;;17.24;100.00;102184.03;5054746;28;20492;-75
2023/06/30 07:45:14;;;;;;;3.10;1.10;;;;;;;16.51;100.00;102072.91;5065820;28;20438;-73
2023/06/30 07:47:41;;;;;;;2.70;1.00;;;;;;;17.11;100.00;102149.63;5056083;28;20273;-74
2023/06/30 07:50:12;;;;;;;10.03;1.47;;;;;;;17.13;100.00;102150.25;5054119;28;20457;-74
2023/06/30 07:52:50;;;;;;;3.40;1.00;;;;;;;17.32;100.00;102169.41;5055609;28;20450;-75
2023/06/30 07:55:17;;;;;;;4.13;1.30;;;;;;;17.53;100.00;102184.59;5057434;28;20898;-74
2023/06/30 07:57:43;;;;;;;3.93;1.20;;;;;;;17.43;100.00;102187.75;5058028;28;20436;-74
2023/06/30 08:00:15;;;;;;;3.73;1.13;;;;;;;17.42;100.00;102202.38;5056920;28;20425;-76
2023/06/30 08:02:41;;;;;;;2.00;0.93;;;;;;;17.07;100.00;102161.13;5054377;28;20426;-76
2023/06/30 08:05:07;;;;;;;3.67;1.27;;;;;;;16.10;100.00;102027.09;5056022;28;20430;-74
2023/06/30 08:07:33;;;;;;;3.33;1.20;;;;;;;17.48;100.00;102192.53;5052846;28;20445;-74
2023/06/30 08:09:58;;;;;;;4.43;1.50;;;;;;;17.12;100.00;102124.16;5055491;28;20203;-74
2023/06/30 08:12:24;;;;;;;6.03;1.27;;;;;;;16.84;100.00;102070.22;5056952;28;20580;-75
2023/06/30 08:14:49;;;;;;;5.53;1.43;;;;;;;16.62;100.00;102022.72;5056732;28;20179;-74
2023/06/30 08:17:15;;;;;;;2.70;0.90;;;;;;;17.17;100.00;102108.09;5058873;28;20759;-75
2023/06/30 08:19:41;;;;;;;2.80;1.30;;;;;;;17.08;100.00;102108.56;5054718;28;20426;-74
2023/06/30 08:22:09;;;;;;;2.57;0.90;;;;;;;17.19;100.00;102128.78;5050287;28;20570;-74
2023/06/30 08:24:34;;;;;;;4.87;1.20;;;;;;;17.66;100.00;102187.28;5053556;28;20438;-75
2023/06/30 08:26:59;;;;;;;2.83;1.00;;;;;;;17.85;100.00;102226.31;5054789;28;20442;-75
2023/06/30 08:29:25;;;;;;;2.93;1.10;;;;;;;17.13;100.00;102133.16;5055578;28;20210;-75
2023/06/30 08:31:50;;;;;;;4.43;1.00;;;;;;;17.61;100.00;102217.75;5056379;28;20206;-74
2023/06/30 08:34:16;;;;;;;3.80;1.00;;;;;;;17.63;100.00;102199.38;5054569;28;20256;-74
2023/06/30 08:36:41;;;;;;;2.77;1.10;;;;;;;17.78;100.00;102223.59;5055232;28;20596;-74
2023/06/30 08:39:11;;;;;;;4.90;1.33;;;;;;;17.69;100.00;102232.97;5051822;28;20338;-75
2023/06/30 08:41:38;;;;;;;3.90;1.03;;;;;;;17.46;100.00;102191.91;5053362;28;20199;-74
2023/06/30 08:44:04;;;;;;;3.27;1.30;;;;;;;16.39;100.00;101975.22;5054822;28;20423;-74
2023/06/30 08:46:29;;;;;;;6.13;1.50;;;;;;;17.76;100.00;102178.69;5055510;28;20432;-75
2023/06/30 08:48:55;;;;;;;5.50;1.30;;;;;;;17.90;100.00;102202.03;5054742;28;20250;-75
2023/06/30 08:51:22;;;;;;;4.83;1.20;;;;;;;18.08;100.00;102204.09;5054832;28;20217;-74
2023/06/30 08:53:49;;;;;;;2.80;1.10;;;;;;;18.02;100.00;102240.22;5052156;28;20188;-75
2023/06/30 08:56:15;;;;;;;4.30;1.37;;;;;;;17.36;100.00;102143.53;5054151;28;20433;-74
2023/06/30 08:58:41;;;;;;;4.23;1.43;;;;;;;17.63;100.00;102172.25;5053353;28;20417;-76
2023/06/30 09:01:07;;;;;;;2.30;1.00;;;;;;;17.01;100.00;102096.88;5054056;28;20446;-75
2023/06/30 09:03:34;;;;;;;3.70;1.03;;;;;;;17.48;100.00;102163.53;5054764;28;20199;-75
2023/06/30 09:06:00;;;;;;;5.50;1.10;;;;;;;18.06;100.00;102204.28;5055250;28;20437;-75
2023/06/30 09:08:56;;;;;;;3.63;1.30;;;;;;;18.24;100.00;102189.16;5056971;28;20449;-75
2023/06/30 09:11:24;;;;;;;5.37;1.50;;;;;;;17.87;100.00;102160.94;5052656;28;20458;-76
2023/06/30 09:13:53;;;;;;;5.73;1.30;;;;;;;17.25;100.00;102081.81;5055803;28;20441;-75
2023/06/30 09:16:19;;;;;;;3.50;1.37;;;;;;;18.15;100.00;102218.44;5054650;28;20532;-75
2023/06/30 09:18:48;;;;;;;4.73;1.20;;;;;;;17.84;100.00;102173.03;5053597;28;20504;-75
2023/06/30 09:21:13;;;;;;;4.30;1.40;;;;;;;17.48;100.00;102092.19;5053565;28;20442;-75
2023/06/30 09:23:39;;;;;;;5.33;1.43;;;;;;;17.79;100.00;102214.41;5053386;28;20444;-75
2023/06/30 09:26:12;;;;;;;6.10;1.20;;;;;;;17.04;100.00;102099.16;5052350;28;20599;-74
2023/06/30 09:28:40;;;;;;;3.07;1.40;;;;;;;18.07;100.00;102232.25;5054137;28;20543;-75
2023/06/30 09:31:05;;;;;;;3.47;1.30;;;;;;;18.10;100.00;102231.00;5055504;28;20445;-74
2023/06/30 09:33:34;;;;;;;5.30;1.53;;;;;;;17.81;100.00;102212.31;5054967;28;20809;-75
2023/06/30 09:36:00;;;;;;;6.90;1.27;;;;;;;17.27;100.00;102180.91;5052975;28;20183;-74
2023/06/30 09:38:28;;;;;;;4.23;1.23;;;;;;;17.05;100.00;102153.19;5052668;28;20888;-75
2023/06/30 09:40:54;;;;;;;3.30;1.20;;;;;;;17.78;100.00;102218.16;5053456;28;20206;-74
2023/06/30 09:43:23;;;;;;;6.50;1.33;;;;;;;17.98;100.00;102250.66;5049172;28;21250;-74
2023/06/30 09:46:01;;;;;;;5.30;1.17;;;;;;;17.81;100.00;102252.19;5053126;28;20446;-75
2023/06/30 09:48:30;;;;;;;6.43;1.37;;;;;;;18.10;100.00;102242.69;5042222;28;20472;-75
2023/06/30 09:50:55;;;;;;;3.73;1.30;;;;;;;18.14;100.00;102211.38;5042039;28;20472;-74
2023/06/30 09:53:21;;;;;;;4.60;1.30;;;;;;;18.47;100.00;102215.78;5050828;28;20450;-75
2023/06/30 09:55:51;;;;;;;9.00;1.37;;;;;;;18.32;100.00;102228.81;5051579;28;20496;-75
2023/06/30 09:58:18;;;;;;;5.07;1.30;;;;;;;17.81;100.00;102230.47;5053259;28;20282;-75
2023/06/30 10:00:44;;;;;;;4.80;1.10;;;;;;;18.26;100.00;102340.00;5053248;28;20977;-75
2023/06/30 10:03:09;;;;;;;6.57;1.50;;;;;;;18.30;100.00;102349.38;5051147;28;20453;-75
2023/06/30 10:05:38;;;;;;;5.20;1.40;;;;;;;18.17;100.00;102344.00;5054082;28;20445;-75
2023/06/30 10:08:05;;;;;;;2.97;1.20;;;;;;;17.95;100.00;102337.13;5051452;28;20219;-76
2023/06/30 10:10:31;;;;;;;8.73;1.10;;;;;;;18.13;100.00;102342.72;5052134;28;21021;-77
2023/06/30 10:12:58;;;;;;;5.50;1.10;;;;;;;17.96;100.00;102208.50;5051932;28;20465;-74
2023/06/30 10:15:25;;;;;;;3.23;1.00;;;;;;;18.00;100.00;102147.31;5051517;28;20226;-75
2023/06/30 10:17:51;;;;;;;2.73;0.90;;;;;;;18.14;100.00;101738.91;5051384;28;20446;-74
2023/06/30 10:20:18;;;;;;;6.67;1.30;;;;;;;17.65;100.00;101311.19;5052218;28;20517;-75
2023/06/30 10:22:46;;;;;;;3.37;1.70;;;;;;;18.58;100.00;101361.13;5050452;28;20488;-73
2023/06/30 10:25:16;;;;;;;3.30;1.03;;;;;;;17.99;100.00;101234.44;5050810;28;20659;-74
2023/06/30 10:27:44;;;;;;;4.03;1.43;;;;;;;18.09;100.00;101252.00;5052363;28;20446;-76
2023/06/30 10:30:11;;;;;;;3.73;0.90;;;;;;;18.70;100.00;101296.72;5054548;28;20466;-75
2023/06/30 10:32:37;;;;;;;6.37;1.27;;;;;;;18.35;100.00;101231.66;5054425;28;20457;-75
2023/06/30 10:35:03;;;;;;;2.33;0.90;;;;;;;18.32;100.00;101215.84;5055754;28;20452;-75
2023/06/30 10:37:29;;;;;;;4.80;1.10;;;;;;;18.15;100.00;101167.72;5052074;28;20201;-74
2023/06/30 10:39:54;;;;;;;4.47;1.13;;;;;;;19.05;100.00;101298.50;5051653;28;20988;-75
2023/06/30 10:42:20;;;;;;;4.80;1.27;;;;;;;18.77;100.00;101244.97;5054971;28;20241;-75
2023/06/30 10:44:47;;;;;;;3.73;0.87;;;;;;;18.96;100.00;101295.34;5052659;28;20210;-76
2023/06/30 10:47:14;;;;;;;4.53;1.10;;;;;;;18.53;100.00;101182.56;5053894;28;20533;-75
2023/06/30 10:49:41;;;;;;;4.60;1.43;;;;;;;18.84;100.00;101275.56;5053217;28;20550;-76
2023/06/30 10:52:29;;;;;;;6.10;1.27;;;;;;;19.05;100.00;101287.63;5053335;28;20466;-75
2023/06/30 10:54:55;;;;;;;4.13;1.13;;;;;;;19.25;100.00;101279.00;5055129;28;20426;-75
2023/06/30 10:57:24;;;;;;;2.00;0.90;;;;;;;19.09;100.00;101284.19;5052636;28;20451;-76
2023/06/30 11:00:15;;;;;;;5.30;1.30;;;;;;;18.97;100.00;101280.66;5050227;28;20184;-77
2023/06/30 11:02:50;;;;;;;4.90;1.63;;;;;;;19.06;100.00;101273.75;5053757;28;20513;-75
2023/06/30 11:05:29;;;;;;;4.93;1.37;;;;;;;18.83;100.00;101224.97;5053847;28;20448;-76
2023/06/30 11:08:21;;;;;;;2.33;0.87;;;;;;;19.14;100.00;101276.09;5056678;28;20437;-75
2023/06/30 11:10:47;;;;;;;3.33;1.13;;;;;;;18.80;100.00;101215.41;5057422;28;20454;-75
2023/06/30 11:13:13;;;;;;;3.63;1.03;;;;;;;18.91;100.00;101243.59;5059643;28;20420;-76
2023/06/30 11:15:38;;;;;;;2.00;1.00;;;;;;;18.87;100.00;101280.50;5054912;28;20496;-75